sensor_id;sensor_type;location;lat;lon;timestamp;temperature;humidity
14057;DHT22;7103;54.300;10.180;2022-08-06T00:02:25;12.30;1.00
14057;DHT22;7103;54.300;10.180;2022-08-06T00:04:58;12.30;1.00
14057;DHT22;7103;54.300;10.180;2022-08-06T00:07:26;12.20;1.00
14057;DHT22;7103;54.300;10.180;2022-08-06T00:09:55;12.10;1.00
14057;DHT22;7103;54.300;10.180;2022-08-06T00:12:32;12.10;1.10
14057;DHT22;7103;54.300;10.180;2022-08-06T00:15:04;12.20;1.60
14057;DHT22;7103;54.300;10.180;2022-08-06T00:17:38;12.20;3.30
14057;DHT22;7103;54.300;10.180;2022-08-06T00:20:06;12.20;1.00
14057;DHT22;7103;54.300;10.180;2022-08-06T00:22:36;12.20;1.00
14057;DHT22;7103;54.300;10.180;2022-08-06T00:25:03;12.10;1.00
14057;DHT22;7103;54.300;10.180;2022-08-06T00:27:31;12.10;1.00
14057;DHT22;7103;54.300;10.180;2022-08-06T00:30:05;12.10;1.00
14057;DHT22;7103;54.300;10.180;2022-08-06T00:32:43;12.10;1.00
14057;DHT22;7103;54.300;10.180;2022-08-06T00:35:12;12.10;1.00
14057;DHT22;7103;54.300;10.180;2022-08-06T00:37:41;12.10;1.00
14057;DHT22;7103;54.300;10.180;2022-08-06T00:40:26;12.10;1.00
14057;DHT22;7103;54.300;10.180;2022-08-06T00:42:59;12.10;2.00
14057;DHT22;7103;54.300;10.180;2022-08-06T00:45:35;12.00;12.50
14057;DHT22;7103;54.300;10.180;2022-08-06T00:48:12;12.10;14.50
14057;DHT22;7103;54.300;10.180;2022-08-06T00:51:00;12.00;16.60
14057;DHT22;7103;54.300;10.180;2022-08-06T00:53:27;12.00;12.60
14057;DHT22;7103;54.300;10.180;2022-08-06T00:56:00;12.00;13.60
14057;DHT22;7103;54.300;10.180;2022-08-06T00:58:35;12.00;6.10
14057;DHT22;7103;54.300;10.180;2022-08-06T01:01:08;11.90;4.80
14057;DHT22;7103;54.300;10.180;2022-08-06T01:03:45;11.90;4.40
14057;DHT22;7103;54.300;10.180;2022-08-06T01:06:19;11.90;7.60
14057;DHT22;7103;54.300;10.180;2022-08-06T01:09:07;12.00;14.50
14057;DHT22;7103;54.300;10.180;2022-08-06T01:11:39;12.00;4.70
14057;DHT22;7103;54.300;10.180;2022-08-06T01:14:07;12.00;7.10
14057;DHT22;7103;54.300;10.180;2022-08-06T01:16:57;12.00;4.90
14057;DHT22;7103;54.300;10.180;2022-08-06T01:20:22;12.00;1.00
14057;DHT22;7103;54.300;10.180;2022-08-06T01:26:09;12.10;1.00
14057;DHT22;7103;54.300;10.180;2022-08-06T01:28:54;12.00;1.00
14057;DHT22;7103;54.300;10.180;2022-08-06T01:32:03;11.90;1.00
14057;DHT22;7103;54.300;10.180;2022-08-06T01:34:36;11.90;1.00
14057;DHT22;7103;54.300;10.180;2022-08-06T01:37:30;11.80;1.00
14057;DHT22;7103;54.300;10.180;2022-08-06T01:40:09;11.80;1.00
14057;DHT22;7103;54.300;10.180;2022-08-06T01:42:38;11.80;1.00
14057;DHT22;7103;54.300;10.180;2022-08-06T01:45:13;11.80;1.00
14057;DHT22;7103;54.300;10.180;2022-08-06T01:47:45;11.80;3.90
14057;DHT22;7103;54.300;10.180;2022-08-06T01:50:26;11.80;1.70
14057;DHT22;7103;54.300;10.180;2022-08-06T01:52:57;11.70;3.60
14057;DHT22;7103;54.300;10.180;2022-08-06T01:55:39;11.70;12.00
14057;DHT22;7103;54.300;10.180;2022-08-06T01:58:29;11.70;17.40
14057;DHT22;7103;54.300;10.180;2022-08-06T02:00:58;11.80;9.70
14057;DHT22;7103;54.300;10.180;2022-08-06T02:03:46;11.80;5.50
14057;DHT22;7103;54.300;10.180;2022-08-06T02:06:31;11.80;1.00
14057;DHT22;7103;54.300;10.180;2022-08-06T02:09:03;11.70;1.00
14057;DHT22;7103;54.300;10.180;2022-08-06T02:12:17;11.70;1.00
14057;DHT22;7103;54.300;10.180;2022-08-06T02:14:54;11.80;1.00
14057;DHT22;7103;54.300;10.180;2022-08-06T02:17:29;11.70;9.90
14057;DHT22;7103;54.300;10.180;2022-08-06T02:20:29;11.70;13.50
14057;DHT22;7103;54.300;10.180;2022-08-06T02:23:06;11.70;20.90
14057;DHT22;7103;54.300;10.180;2022-08-06T02:25:39;11.70;22.50
14057;DHT22;7103;54.300;10.180;2022-08-06T02:28:08;11.60;22.30
14057;DHT22;7103;54.300;10.180;2022-08-06T02:30:38;11.60;22.40
14057;DHT22;7103;54.300;10.180;2022-08-06T02:33:09;11.70;22.40
14057;DHT22;7103;54.300;10.180;2022-08-06T02:35:49;11.60;22.40
14057;DHT22;7103;54.300;10.180;2022-08-06T02:38:25;11.60;22.40
14057;DHT22;7103;54.300;10.180;2022-08-06T02:40:59;11.60;28.30
14057;DHT22;7103;54.300;10.180;2022-08-06T02:43:37;11.60;33.10
14057;DHT22;7103;54.300;10.180;2022-08-06T02:46:23;11.60;30.60
14057;DHT22;7103;54.300;10.180;2022-08-06T02:48:59;11.70;29.00
14057;DHT22;7103;54.300;10.180;2022-08-06T02:51:34;11.60;22.40
14057;DHT22;7103;54.300;10.180;2022-08-06T02:54:31;11.50;22.30
14057;DHT22;7103;54.300;10.180;2022-08-06T02:57:16;11.50;22.30
14057;DHT22;7103;54.300;10.180;2022-08-06T02:59:47;11.50;22.20
14057;DHT22;7103;54.300;10.180;2022-08-06T03:02:23;11.40;22.20
14057;DHT22;7103;54.300;10.180;2022-08-06T03:04:53;11.40;22.30
14057;DHT22;7103;54.300;10.180;2022-08-06T03:07:27;11.40;22.20
14057;DHT22;7103;54.300;10.180;2022-08-06T03:09:59;11.40;22.20
14057;DHT22;7103;54.300;10.180;2022-08-06T03:12:27;11.30;22.20
14057;DHT22;7103;54.300;10.180;2022-08-06T03:14:59;11.30;22.10
14057;DHT22;7103;54.300;10.180;2022-08-06T03:17:36;11.20;22.00
14057;DHT22;7103;54.300;10.180;2022-08-06T03:20:05;11.30;22.10
14057;DHT22;7103;54.300;10.180;2022-08-06T03:22:35;11.30;22.20
14057;DHT22;7103;54.300;10.180;2022-08-06T03:25:12;11.30;22.10
14057;DHT22;7103;54.300;10.180;2022-08-06T03:27:41;11.30;19.40
14057;DHT22;7103;54.300;10.180;2022-08-06T03:30:15;11.30;16.40
14057;DHT22;7103;54.300;10.180;2022-08-06T03:33:10;11.30;14.30
14057;DHT22;7103;54.300;10.180;2022-08-06T03:36:00;11.20;17.20
14057;DHT22;7103;54.300;10.180;2022-08-06T03:38:38;11.20;22.00
14057;DHT22;7103;54.300;10.180;2022-08-06T03:41:07;11.30;22.10
14057;DHT22;7103;54.300;10.180;2022-08-06T03:43:35;11.20;22.10
14057;DHT22;7103;54.300;10.180;2022-08-06T03:46:41;11.20;22.00
14057;DHT22;7103;54.300;10.180;2022-08-06T03:49:44;11.20;27.10
14057;DHT22;7103;54.300;10.180;2022-08-06T03:52:20;11.20;31.70
14057;DHT22;7103;54.300;10.180;2022-08-06T03:54:52;11.20;35.00
14057;DHT22;7103;54.300;10.180;2022-08-06T03:57:21;11.20;36.60
14057;DHT22;7103;54.300;10.180;2022-08-06T03:59:57;11.30;40.70
14057;DHT22;7103;54.300;10.180;2022-08-06T04:02:31;11.30;40.70
14057;DHT22;7103;54.300;10.180;2022-08-06T04:05:14;11.20;38.20
14057;DHT22;7103;54.300;10.180;2022-08-06T04:07:42;11.30;43.20
14057;DHT22;7103;54.300;10.180;2022-08-06T04:10:28;11.30;45.50
14057;DHT22;7103;54.300;10.180;2022-08-06T04:13:02;11.30;39.80
14057;DHT22;7103;54.300;10.180;2022-08-06T04:15:51;11.20;41.20
14057;DHT22;7103;54.300;10.180;2022-08-06T04:18:28;11.20;39.20
14057;DHT22;7103;54.300;10.180;2022-08-06T04:21:01;11.10;41.00
14057;DHT22;7103;54.300;10.180;2022-08-06T04:23:50;11.10;45.00
14057;DHT22;7103;54.300;10.180;2022-08-06T04:26:22;11.20;49.30
14057;DHT22;7103;54.300;10.180;2022-08-06T04:28:52;11.20;51.90
14057;DHT22;7103;54.300;10.180;2022-08-06T04:31:25;11.20;53.30
14057;DHT22;7103;54.300;10.180;2022-08-06T04:34:21;11.20;62.50
14057;DHT22;7103;54.300;10.180;2022-08-06T04:36:55;11.30;65.30
14057;DHT22;7103;54.300;10.180;2022-08-06T04:39:24;11.30;64.20
14057;DHT22;7103;54.300;10.180;2022-08-06T04:42:11;11.30;71.00
14057;DHT22;7103;54.300;10.180;2022-08-06T04:44:41;11.40;79.60
14057;DHT22;7103;54.300;10.180;2022-08-06T04:47:10;11.40;79.40
14057;DHT22;7103;54.300;10.180;2022-08-06T04:49:40;11.50;79.60
14057;DHT22;7103;54.300;10.180;2022-08-06T04:52:28;11.50;83.40
14057;DHT22;7103;54.300;10.180;2022-08-06T04:55:03;11.50;89.40
14057;DHT22;7103;54.300;10.180;2022-08-06T04:57:49;11.50;96.30
14057;DHT22;7103;54.300;10.180;2022-08-06T05:00:33;11.60;99.90
14057;DHT22;7103;54.300;10.180;2022-08-06T05:03:20;11.70;99.90
14057;DHT22;7103;54.300;10.180;2022-08-06T05:08:49;11.80;99.90
14057;DHT22;7103;54.300;10.180;2022-08-06T05:11:25;11.80;99.90
14057;DHT22;7103;54.300;10.180;2022-08-06T05:13:58;11.80;99.90
14057;DHT22;7103;54.300;10.180;2022-08-06T05:16:36;11.90;99.90
14057;DHT22;7103;54.300;10.180;2022-08-06T05:19:35;12.00;99.90
14057;DHT22;7103;54.300;10.180;2022-08-06T05:22:06;12.10;99.90
14057;DHT22;7103;54.300;10.180;2022-08-06T05:24:39;12.10;99.90
14057;DHT22;7103;54.300;10.180;2022-08-06T05:27:27;12.00;99.90
14057;DHT22;7103;54.300;10.180;2022-08-06T05:30:14;12.10;99.90
14057;DHT22;7103;54.300;10.180;2022-08-06T05:32:45;12.30;99.90
14057;DHT22;7103;54.300;10.180;2022-08-06T05:35:19;12.30;99.90
14057;DHT22;7103;54.300;10.180;2022-08-06T05:37:48;12.40;99.90
14057;DHT22;7103;54.300;10.180;2022-08-06T05:40:29;12.50;99.90
14057;DHT22;7103;54.300;10.180;2022-08-06T05:43:21;12.60;99.90
14057;DHT22;7103;54.300;10.180;2022-08-06T05:45:50;12.70;99.90
14057;DHT22;7103;54.300;10.180;2022-08-06T05:48:19;12.80;99.90
14057;DHT22;7103;54.300;10.180;2022-08-06T05:51:02;13.00;99.90
14057;DHT22;7103;54.300;10.180;2022-08-06T05:53:41;13.20;99.90
14057;DHT22;7103;54.300;10.180;2022-08-06T05:56:42;13.50;96.90
14057;DHT22;7103;54.300;10.180;2022-08-06T05:59:19;13.70;32.30
14057;DHT22;7103;54.300;10.180;2022-08-06T06:02:09;13.80;24.00
14057;DHT22;7103;54.300;10.180;2022-08-06T06:04:37;14.50;24.60
14057;DHT22;7103;54.300;10.180;2022-08-06T06:07:25;15.30;1.00
14057;DHT22;7103;54.300;10.180;2022-08-06T06:10:12;16.20;1.00
14057;DHT22;7103;54.300;10.180;2022-08-06T06:12:44;16.80;1.00
14057;DHT22;7103;54.300;10.180;2022-08-06T06:15:14;17.40;1.00
14057;DHT22;7103;54.300;10.180;2022-08-06T06:18:27;17.70;1.00
14057;DHT22;7103;54.300;10.180;2022-08-06T06:21:15;18.10;1.00
14057;DHT22;7103;54.300;10.180;2022-08-06T06:24:19;18.30;1.00
14057;DHT22;7103;54.300;10.180;2022-08-06T06:27:01;18.60;1.00
14057;DHT22;7103;54.300;10.180;2022-08-06T06:30:07;19.00;1.00
14057;DHT22;7103;54.300;10.180;2022-08-06T06:32:55;19.20;1.00
14057;DHT22;7103;54.300;10.180;2022-08-06T06:35:33;19.40;1.00
14057;DHT22;7103;54.300;10.180;2022-08-06T06:41:15;19.90;1.00
14057;DHT22;7103;54.300;10.180;2022-08-06T06:46:38;20.20;1.00
14057;DHT22;7103;54.300;10.180;2022-08-06T06:49:16;20.50;1.00
14057;DHT22;7103;54.300;10.180;2022-08-06T06:52:40;20.70;1.00
14057;DHT22;7103;54.300;10.180;2022-08-06T06:55:32;21.00;1.00
14057;DHT22;7103;54.300;10.180;2022-08-06T06:58:40;21.20;1.00
14057;DHT22;7103;54.300;10.180;2022-08-06T07:01:15;21.20;1.00
14057;DHT22;7103;54.300;10.180;2022-08-06T07:03:55;21.40;1.00
14057;DHT22;7103;54.300;10.180;2022-08-06T07:06:23;21.50;1.00
14057;DHT22;7103;54.300;10.180;2022-08-06T07:09:17;21.90;1.00
14057;DHT22;7103;54.300;10.180;2022-08-06T07:12:05;22.20;1.00
14057;DHT22;7103;54.300;10.180;2022-08-06T07:14:47;22.30;1.00
14057;DHT22;7103;54.300;10.180;2022-08-06T07:17:25;22.50;1.00
14057;DHT22;7103;54.300;10.180;2022-08-06T07:20:13;22.60;1.00
14057;DHT22;7103;54.300;10.180;2022-08-06T07:22:44;22.70;1.00
14057;DHT22;7103;54.300;10.180;2022-08-06T07:25:37;22.70;1.00
14057;DHT22;7103;54.300;10.180;2022-08-06T07:28:19;22.50;1.00
14057;DHT22;7103;54.300;10.180;2022-08-06T07:30:57;22.60;1.00
14057;DHT22;7103;54.300;10.180;2022-08-06T07:33:34;22.80;1.00
14057;DHT22;7103;54.300;10.180;2022-08-06T07:36:31;22.80;1.00
14057;DHT22;7103;54.300;10.180;2022-08-06T07:39:08;22.30;1.00
14057;DHT22;7103;54.300;10.180;2022-08-06T07:41:42;22.30;1.00
14057;DHT22;7103;54.300;10.180;2022-08-06T07:44:33;22.30;1.00
14057;DHT22;7103;54.300;10.180;2022-08-06T07:47:27;22.60;1.00
14057;DHT22;7103;54.300;10.180;2022-08-06T07:50:17;22.20;1.00
14057;DHT22;7103;54.300;10.180;2022-08-06T07:52:52;21.60;1.00
14057;DHT22;7103;54.300;10.180;2022-08-06T07:55:22;21.00;1.00
14057;DHT22;7103;54.300;10.180;2022-08-06T07:57:57;21.20;1.00
14057;DHT22;7103;54.300;10.180;2022-08-06T08:00:29;21.70;1.00
14057;DHT22;7103;54.300;10.180;2022-08-06T08:02:56;22.20;1.00
14057;DHT22;7103;54.300;10.180;2022-08-06T08:06:03;22.40;1.00
14057;DHT22;7103;54.300;10.180;2022-08-06T08:08:56;22.80;1.00
14057;DHT22;7103;54.300;10.180;2022-08-06T08:11:25;23.30;1.00
14057;DHT22;7103;54.300;10.180;2022-08-06T08:14:13;23.80;1.00
14057;DHT22;7103;54.300;10.180;2022-08-06T08:16:43;23.80;1.00
14057;DHT22;7103;54.300;10.180;2022-08-06T08:19:28;23.60;1.00
14057;DHT22;7103;54.300;10.180;2022-08-06T08:22:12;23.30;1.00
14057;DHT22;7103;54.300;10.180;2022-08-06T08:24:42;22.60;1.00
14057;DHT22;7103;54.300;10.180;2022-08-06T08:27:20;22.30;1.00
14057;DHT22;7103;54.300;10.180;2022-08-06T08:29:51;21.70;1.00
14057;DHT22;7103;54.300;10.180;2022-08-06T08:32:23;21.10;1.00
14057;DHT22;7103;54.300;10.180;2022-08-06T08:34:50;21.00;1.00
14057;DHT22;7103;54.300;10.180;2022-08-06T08:37:21;21.50;1.00
14057;DHT22;7103;54.300;10.180;2022-08-06T08:39:49;22.40;1.00
14057;DHT22;7103;54.300;10.180;2022-08-06T08:42:29;23.10;1.00
14057;DHT22;7103;54.300;10.180;2022-08-06T08:45:02;23.70;1.00
14057;DHT22;7103;54.300;10.180;2022-08-06T08:47:30;24.30;1.00
14057;DHT22;7103;54.300;10.180;2022-08-06T08:50:22;24.30;1.00
14057;DHT22;7103;54.300;10.180;2022-08-06T08:53:00;24.60;1.00
14057;DHT22;7103;54.300;10.180;2022-08-06T08:55:31;23.90;1.00
14057;DHT22;7103;54.300;10.180;2022-08-06T08:58:18;23.10;1.00
14057;DHT22;7103;54.300;10.180;2022-08-06T09:01:06;22.00;1.00
14057;DHT22;7103;54.300;10.180;2022-08-06T09:03:54;21.40;1.00
14057;DHT22;7103;54.300;10.180;2022-08-06T09:06:22;20.80;1.00
14057;DHT22;7103;54.300;10.180;2022-08-06T09:08:57;20.50;1.00
14057;DHT22;7103;54.300;10.180;2022-08-06T09:11:32;20.80;1.00
14057;DHT22;7103;54.300;10.180;2022-08-06T09:14:20;21.60;1.00
14057;DHT22;7103;54.300;10.180;2022-08-06T09:16:59;22.70;1.00
14057;DHT22;7103;54.300;10.180;2022-08-06T09:19:27;23.40;1.00
14057;DHT22;7103;54.300;10.180;2022-08-06T09:22:05;23.80;1.00
14057;DHT22;7103;54.300;10.180;2022-08-06T09:24:35;24.00;1.00
14057;DHT22;7103;54.300;10.180;2022-08-06T09:27:09;23.90;1.00
14057;DHT22;7103;54.300;10.180;2022-08-06T09:29:59;23.70;1.00
14057;DHT22;7103;54.300;10.180;2022-08-06T09:32:47;24.10;1.00
14057;DHT22;7103;54.300;10.180;2022-08-06T09:35:28;24.20;1.00
14057;DHT22;7103;54.300;10.180;2022-08-06T09:38:12;23.90;1.00
14057;DHT22;7103;54.300;10.180;2022-08-06T09:41:05;23.80;1.00
14057;DHT22;7103;54.300;10.180;2022-08-06T09:43:40;24.10;1.00
14057;DHT22;7103;54.300;10.180;2022-08-06T09:46:45;24.00;1.00
14057;DHT22;7103;54.300;10.180;2022-08-06T09:49:16;23.20;1.00
14057;DHT22;7103;54.300;10.180;2022-08-06T09:52:12;23.30;1.00
14057;DHT22;7103;54.300;10.180;2022-08-06T09:54:39;24.10;1.00
14057;DHT22;7103;54.300;10.180;2022-08-06T09:57:06;24.50;1.00
14057;DHT22;7103;54.300;10.180;2022-08-06T09:59:46;25.20;1.00
14057;DHT22;7103;54.300;10.180;2022-08-06T10:02:18;25.50;1.00
14057;DHT22;7103;54.300;10.180;2022-08-06T10:05:06;25.30;1.00
14057;DHT22;7103;54.300;10.180;2022-08-06T10:07:44;24.60;1.00
14057;DHT22;7103;54.300;10.180;2022-08-06T10:10:12;23.90;1.00
14057;DHT22;7103;54.300;10.180;2022-08-06T10:13:18;24.20;1.00
14057;DHT22;7103;54.300;10.180;2022-08-06T10:15:47;24.90;1.00
14057;DHT22;7103;54.300;10.180;2022-08-06T10:21:22;25.50;1.00
14057;DHT22;7103;54.300;10.180;2022-08-06T10:24:01;25.30;1.00
14057;DHT22;7103;54.300;10.180;2022-08-06T10:26:32;25.40;1.00
14057;DHT22;7103;54.300;10.180;2022-08-06T10:29:06;25.50;1.00
14057;DHT22;7103;54.300;10.180;2022-08-06T10:31:35;25.60;1.00
14057;DHT22;7103;54.300;10.180;2022-08-06T10:34:08;25.20;1.00
14057;DHT22;7103;54.300;10.180;2022-08-06T10:39:06;24.50;1.00
14057;DHT22;7103;54.300;10.180;2022-08-06T10:41:55;24.80;1.00
14057;DHT22;7103;54.300;10.180;2022-08-06T10:44:30;25.20;1.00
14057;DHT22;7103;54.300;10.180;2022-08-06T10:46:59;25.50;1.00
14057;DHT22;7103;54.300;10.180;2022-08-06T10:49:32;25.50;1.00
14057;DHT22;7103;54.300;10.180;2022-08-06T10:52:19;25.80;1.00
14057;DHT22;7103;54.300;10.180;2022-08-06T10:54:50;25.80;1.00
14057;DHT22;7103;54.300;10.180;2022-08-06T10:57:18;25.00;1.00
14057;DHT22;7103;54.300;10.180;2022-08-06T11:00:04;24.40;1.00
14057;DHT22;7103;54.300;10.180;2022-08-06T11:05:26;23.60;1.00
14057;DHT22;7103;54.300;10.180;2022-08-06T11:08:32;24.20;1.00
14057;DHT22;7103;54.300;10.180;2022-08-06T11:14:09;24.60;1.00
14057;DHT22;7103;54.300;10.180;2022-08-06T11:16:57;24.40;1.00
14057;DHT22;7103;54.300;10.180;2022-08-06T11:19:39;24.60;1.00
14057;DHT22;7103;54.300;10.180;2022-08-06T11:22:32;25.10;1.00
14057;DHT22;7103;54.300;10.180;2022-08-06T11:25:10;25.50;1.00
14057;DHT22;7103;54.300;10.180;2022-08-06T11:27:56;25.60;1.00
14057;DHT22;7103;54.300;10.180;2022-08-06T11:30:43;25.70;1.00
14057;DHT22;7103;54.300;10.180;2022-08-06T11:36:05;25.70;1.00
14057;DHT22;7103;54.300;10.180;2022-08-06T11:41:23;26.20;1.00
14057;DHT22;7103;54.300;10.180;2022-08-06T11:44:12;25.90;1.00
14057;DHT22;7103;54.300;10.180;2022-08-06T11:46:44;25.80;1.00
14057;DHT22;7103;54.300;10.180;2022-08-06T11:49:24;25.80;1.00
14057;DHT22;7103;54.300;10.180;2022-08-06T11:55:10;24.20;1.00
14057;DHT22;7103;54.300;10.180;2022-08-06T12:00:57;24.50;1.00
14057;DHT22;7103;54.300;10.180;2022-08-06T12:03:39;24.10;1.00
14057;DHT22;7103;54.300;10.180;2022-08-06T12:06:24;23.70;1.00
14057;DHT22;7103;54.300;10.180;2022-08-06T12:09:11;23.30;1.00
14057;DHT22;7103;54.300;10.180;2022-08-06T12:12:30;23.20;1.00
14057;DHT22;7103;54.300;10.180;2022-08-06T12:15:35;23.50;1.00
14057;DHT22;7103;54.300;10.180;2022-08-06T12:18:10;23.80;1.00
14057;DHT22;7103;54.300;10.180;2022-08-06T12:20:45;24.10;1.00
14057;DHT22;7103;54.300;10.180;2022-08-06T12:23:22;24.50;1.00
14057;DHT22;7103;54.300;10.180;2022-08-06T12:26:10;24.50;1.00
14057;DHT22;7103;54.300;10.180;2022-08-06T12:28:37;24.90;1.00
14057;DHT22;7103;54.300;10.180;2022-08-06T12:31:05;25.30;1.00
14057;DHT22;7103;54.300;10.180;2022-08-06T12:33:51;25.40;1.00
14057;DHT22;7103;54.300;10.180;2022-08-06T12:36:18;24.80;1.00
14057;DHT22;7103;54.300;10.180;2022-08-06T12:39:03;24.40;1.00
14057;DHT22;7103;54.300;10.180;2022-08-06T12:41:41;24.20;1.00
14057;DHT22;7103;54.300;10.180;2022-08-06T12:44:13;23.70;1.00
14057;DHT22;7103;54.300;10.180;2022-08-06T12:47:11;23.80;1.00
14057;DHT22;7103;54.300;10.180;2022-08-06T12:49:39;24.30;1.00
14057;DHT22;7103;54.300;10.180;2022-08-06T12:52:13;24.50;1.00
14057;DHT22;7103;54.300;10.180;2022-08-06T12:54:41;24.00;1.00
14057;DHT22;7103;54.300;10.180;2022-08-06T12:57:08;24.00;1.00
14057;DHT22;7103;54.300;10.180;2022-08-06T12:59:35;24.30;1.00
14057;DHT22;7103;54.300;10.180;2022-08-06T13:02:10;24.20;1.00
14057;DHT22;7103;54.300;10.180;2022-08-06T13:04:53;24.30;1.00
14057;DHT22;7103;54.300;10.180;2022-08-06T13:07:21;24.30;1.00
14057;DHT22;7103;54.300;10.180;2022-08-06T13:09:49;24.40;1.00
14057;DHT22;7103;54.300;10.180;2022-08-06T13:12:36;24.50;1.00
14057;DHT22;7103;54.300;10.180;2022-08-06T13:15:25;24.70;1.00
14057;DHT22;7103;54.300;10.180;2022-08-06T13:18:14;24.40;1.00
14057;DHT22;7103;54.300;10.180;2022-08-06T13:21:02;23.80;1.00
14057;DHT22;7103;54.300;10.180;2022-08-06T13:23:37;23.30;1.00
14057;DHT22;7103;54.300;10.180;2022-08-06T13:32:09;22.80;1.00
14057;DHT22;7103;54.300;10.180;2022-08-06T13:34:58;23.40;1.00
14057;DHT22;7103;54.300;10.180;2022-08-06T13:37:51;23.80;1.00
14057;DHT22;7103;54.300;10.180;2022-08-06T13:40:48;23.60;1.00
14057;DHT22;7103;54.300;10.180;2022-08-06T13:43:37;23.30;1.00
14057;DHT22;7103;54.300;10.180;2022-08-06T13:46:23;23.40;1.00
14057;DHT22;7103;54.300;10.180;2022-08-06T13:48:59;23.70;1.00
14057;DHT22;7103;54.300;10.180;2022-08-06T13:51:37;24.10;1.00
14057;DHT22;7103;54.300;10.180;2022-08-06T13:54:15;24.00;1.00
14057;DHT22;7103;54.300;10.180;2022-08-06T13:56:47;23.90;1.00
14057;DHT22;7103;54.300;10.180;2022-08-06T13:59:19;23.60;1.00
14057;DHT22;7103;54.300;10.180;2022-08-06T14:02:05;23.50;1.00
14057;DHT22;7103;54.300;10.180;2022-08-06T14:04:34;23.40;1.00
14057;DHT22;7103;54.300;10.180;2022-08-06T14:07:01;23.20;1.00
14057;DHT22;7103;54.300;10.180;2022-08-06T14:09:29;22.70;1.00
14057;DHT22;7103;54.300;10.180;2022-08-06T14:12:17;22.50;1.00
14057;DHT22;7103;54.300;10.180;2022-08-06T14:14:46;22.20;1.00
14057;DHT22;7103;54.300;10.180;2022-08-06T14:17:14;22.00;1.00
14057;DHT22;7103;54.300;10.180;2022-08-06T14:19:41;21.80;1.00
14057;DHT22;7103;54.300;10.180;2022-08-06T14:22:28;21.70;1.00
14057;DHT22;7103;54.300;10.180;2022-08-06T14:25:08;21.80;1.00
14057;DHT22;7103;54.300;10.180;2022-08-06T14:27:35;21.60;1.00
14057;DHT22;7103;54.300;10.180;2022-08-06T14:30:10;21.70;1.00
14057;DHT22;7103;54.300;10.180;2022-08-06T14:32:57;21.90;1.00
14057;DHT22;7103;54.300;10.180;2022-08-06T14:35:36;22.00;1.00
14057;DHT22;7103;54.300;10.180;2022-08-06T14:38:11;22.10;1.00
14057;DHT22;7103;54.300;10.180;2022-08-06T14:40:39;22.30;1.00
14057;DHT22;7103;54.300;10.180;2022-08-06T14:43:29;22.40;1.00
14057;DHT22;7103;54.300;10.180;2022-08-06T14:46:24;22.40;1.00
14057;DHT22;7103;54.300;10.180;2022-08-06T14:48:53;22.60;1.00
14057;DHT22;7103;54.300;10.180;2022-08-06T14:51:25;22.60;1.00
14057;DHT22;7103;54.300;10.180;2022-08-06T14:54:12;22.50;1.00
14057;DHT22;7103;54.300;10.180;2022-08-06T14:56:41;22.40;1.00
14057;DHT22;7103;54.300;10.180;2022-08-06T14:59:20;22.20;1.00
14057;DHT22;7103;54.300;10.180;2022-08-06T15:01:49;22.40;1.00
14057;DHT22;7103;54.300;10.180;2022-08-06T15:04:20;22.60;1.00
14057;DHT22;7103;54.300;10.180;2022-08-06T15:06:52;22.50;1.00
14057;DHT22;7103;54.300;10.180;2022-08-06T15:09:26;22.40;1.00
14057;DHT22;7103;54.300;10.180;2022-08-06T15:12:13;22.40;1.00
14057;DHT22;7103;54.300;10.180;2022-08-06T15:15:00;22.30;1.00
14057;DHT22;7103;54.300;10.180;2022-08-06T15:17:31;22.20;1.00
14057;DHT22;7103;54.300;10.180;2022-08-06T15:20:18;22.10;1.00
14057;DHT22;7103;54.300;10.180;2022-08-06T15:22:51;22.00;1.00
14057;DHT22;7103;54.300;10.180;2022-08-06T15:25:18;21.70;1.00
14057;DHT22;7103;54.300;10.180;2022-08-06T15:28:06;21.50;1.00
14057;DHT22;7103;54.300;10.180;2022-08-06T15:30:36;21.20;1.00
14057;DHT22;7103;54.300;10.180;2022-08-06T15:33:04;20.80;1.00
14057;DHT22;7103;54.300;10.180;2022-08-06T15:35:38;20.90;1.00
14057;DHT22;7103;54.300;10.180;2022-08-06T15:38:27;20.90;1.00
14057;DHT22;7103;54.300;10.180;2022-08-06T15:40:59;21.20;1.00
14057;DHT22;7103;54.300;10.180;2022-08-06T15:43:27;21.30;1.00
14057;DHT22;7103;54.300;10.180;2022-08-06T15:46:10;21.30;1.00
14057;DHT22;7103;54.300;10.180;2022-08-06T15:48:37;21.20;1.00
14057;DHT22;7103;54.300;10.180;2022-08-06T15:51:23;21.00;1.00
14057;DHT22;7103;54.300;10.180;2022-08-06T15:53:57;20.70;1.00
14057;DHT22;7103;54.300;10.180;2022-08-06T15:56:28;20.50;1.00
14057;DHT22;7103;54.300;10.180;2022-08-06T15:59:04;20.40;1.00
14057;DHT22;7103;54.300;10.180;2022-08-06T16:01:41;20.40;1.00
14057;DHT22;7103;54.300;10.180;2022-08-06T16:04:30;20.50;1.00
14057;DHT22;7103;54.300;10.180;2022-08-06T16:07:02;20.70;1.00
14057;DHT22;7103;54.300;10.180;2022-08-06T16:09:31;21.00;1.00
14057;DHT22;7103;54.300;10.180;2022-08-06T16:12:18;21.10;1.00
14057;DHT22;7103;54.300;10.180;2022-08-06T16:14:45;21.00;1.00
14057;DHT22;7103;54.300;10.180;2022-08-06T16:17:23;20.70;1.00
14057;DHT22;7103;54.300;10.180;2022-08-06T16:20:10;20.60;1.00
14057;DHT22;7103;54.300;10.180;2022-08-06T16:22:46;20.40;1.00
14057;DHT22;7103;54.300;10.180;2022-08-06T16:25:13;20.30;1.00
14057;DHT22;7103;54.300;10.180;2022-08-06T16:27:42;20.40;1.00
14057;DHT22;7103;54.300;10.180;2022-08-06T16:30:13;20.60;1.00
14057;DHT22;7103;54.300;10.180;2022-08-06T16:32:40;20.70;1.00
14057;DHT22;7103;54.300;10.180;2022-08-06T16:35:11;20.90;1.00
14057;DHT22;7103;54.300;10.180;2022-08-06T16:37:43;20.90;1.00
14057;DHT22;7103;54.300;10.180;2022-08-06T16:40:30;20.80;1.00
14057;DHT22;7103;54.300;10.180;2022-08-06T16:42:57;20.80;1.00
14057;DHT22;7103;54.300;10.180;2022-08-06T16:45:25;20.80;1.00
14057;DHT22;7103;54.300;10.180;2022-08-06T16:48:03;20.80;1.00
14057;DHT22;7103;54.300;10.180;2022-08-06T16:50:50;20.70;1.00
14057;DHT22;7103;54.300;10.180;2022-08-06T16:53:17;20.70;1.00
14057;DHT22;7103;54.300;10.180;2022-08-06T16:56:04;20.60;1.00
14057;DHT22;7103;54.300;10.180;2022-08-06T16:58:32;20.40;1.00
14057;DHT22;7103;54.300;10.180;2022-08-06T17:01:15;20.40;1.00
14057;DHT22;7103;54.300;10.180;2022-08-06T17:04:02;20.40;1.00
14057;DHT22;7103;54.300;10.180;2022-08-06T17:06:33;20.30;1.00
14057;DHT22;7103;54.300;10.180;2022-08-06T17:09:03;20.30;1.00
14057;DHT22;7103;54.300;10.180;2022-08-06T17:11:43;20.20;1.00
14057;DHT22;7103;54.300;10.180;2022-08-06T17:14:30;20.20;1.00
14057;DHT22;7103;54.300;10.180;2022-08-06T17:17:01;20.20;1.00
14057;DHT22;7103;54.300;10.180;2022-08-06T17:19:49;20.20;1.00
14057;DHT22;7103;54.300;10.180;2022-08-06T17:22:28;20.10;1.00
14057;DHT22;7103;54.300;10.180;2022-08-06T17:24:57;20.00;1.00
14057;DHT22;7103;54.300;10.180;2022-08-06T17:27:24;20.00;1.00
14057;DHT22;7103;54.300;10.180;2022-08-06T17:30:12;19.90;1.00
14057;DHT22;7103;54.300;10.180;2022-08-06T17:32:42;20.00;1.00
14057;DHT22;7103;54.300;10.180;2022-08-06T17:35:14;19.90;1.00
14057;DHT22;7103;54.300;10.180;2022-08-06T17:37:45;19.80;1.00